Time;durP1;ratioP1;P1;durP2;ratioP2;P2;SDS_P1;SDS_P2;PMS_P1;PMS_P2;Temp;Humidity;BMP_temperature;BMP_pressure;BME280_temperature;BME280_humidity;BME280_pressure;Samples;Min_cycle;Max_cycle;Signal;HPM_P1;HPM_P2
2021/04/04 00:00:11;;;;;;;61.63;36.58;;;;;;;3.71;77.14;94178.78;1691546;83;21182;-55
2021/04/04 00:02:42;;;;;;;71.80;40.75;;;;;;;3.66;77.27;94171.11;1721078;83;21127;-56
2021/04/04 00:05:12;;;;;;;66.22;37.45;;;;;;;3.62;77.54;94177.97;1720903;83;21182;-55
2021/04/04 00:07:42;;;;;;;63.87;37.70;;;;;;;3.64;77.67;94176.95;1721062;83;21173;-56
2021/04/04 00:10:11;;;;;;;67.27;40.15;;;;;;;3.60;77.65;94174.12;1721007;83;21218;-55
2021/04/04 00:12:39;;;;;;;76.97;43.35;;;;;;;3.54;77.86;94177.15;1721033;83;21500;-55
2021/04/04 00:15:11;;;;;;;75.65;43.63;;;;;;;3.52;78.42;94177.55;1721174;83;21511;-55
2021/04/04 00:17:41;;;;;;;81.82;45.88;;;;;;;3.56;78.21;94174.78;1720820;83;21923;-56
2021/04/04 00:20:14;;;;;;;70.40;39.83;;;;;;;3.52;78.18;94178.91;1721129;83;21524;-55
2021/04/04 00:22:42;;;;;;;;;;;;;;;3.52;78.27;94178.91;1723731;83;22119;-55
2021/04/04 00:25:11;;;;;;;67.47;40.43;;;;;;;3.48;78.42;94187.73;1720825;83;20251;-56
2021/04/04 00:27:39;;;;;;;81.08;46.98;;;;;;;3.56;78.65;94189.73;1721066;83;21074;-56
2021/04/04 00:30:13;;;;;;;87.22;49.38;;;;;;;3.55;78.46;94193.03;1720856;83;21402;-56
2021/04/04 00:32:42;;;;;;;89.00;48.98;;;;;;;3.52;78.44;94188.43;1720964;83;21169;-56
2021/04/04 00:35:16;;;;;;;100.25;51.05;;;;;;;3.53;78.67;94189.96;1720897;83;21209;-56
2021/04/04 00:37:45;;;;;;;89.58;48.63;;;;;;;3.61;78.84;94193.33;1720928;83;21158;-55
2021/04/04 00:40:26;;;;;;;78.95;43.20;;;;;;;3.73;78.52;94198.92;1688184;83;21119;-57
2021/04/04 00:42:54;;;;;;;82.08;46.25;;;;;;;3.77;78.03;94189.34;1720907;83;21086;-56
2021/04/04 00:45:26;;;;;;;78.80;46.60;;;;;;;3.70;77.98;94190.84;1721193;83;21154;-56
2021/04/04 00:47:54;;;;;;;74.87;47.25;;;;;;;3.62;78.06;94192.14;1721322;82;22133;-55
2021/04/04 00:50:26;;;;;;;59.58;39.40;;;;;;;3.58;78.29;94196.30;1721744;83;21174;-55
2021/04/04 00:52:57;;;;;;;70.57;41.70;;;;;;;3.57;78.31;94193.98;1721954;82;21122;-56
2021/04/04 00:55:25;;;;;;;73.90;45.85;;;;;;;3.55;78.49;94199.08;1721773;83;21574;-56
2021/04/04 00:57:54;;;;;;;75.08;44.60;;;;;;;3.55;78.53;94196.36;1721685;83;21583;-56
2021/04/04 01:00:25;;;;;;;72.97;46.60;;;;;;;3.60;78.68;94200.73;1721883;83;21398;-56
2021/04/04 01:02:55;;;;;;;72.08;46.77;;;;;;;3.68;78.76;94206.20;1721798;82;21602;-56
2021/04/04 01:05:34;;;;;;;77.67;48.20;;;;;;;3.78;79.03;94206.62;1721620;82;21138;-56
2021/04/04 01:08:00;;;;;;;82.53;49.70;;;;;;;3.91;78.85;94203.44;1721791;83;21518;-56
2021/04/04 01:10:36;;;;;;;72.85;44.73;;;;;;;3.97;78.32;94209.16;1721944;83;21078;-56
2021/04/04 01:13:45;;;;;;;88.90;51.42;;;;;;;3.94;78.02;94206.70;1721833;83;22206;-55
2021/04/04 01:16:28;;;;;;;90.30;49.63;;;;;;;3.86;78.11;94202.57;1721758;83;21135;-55
2021/04/04 01:19:05;;;;;;;71.50;44.18;;;;;;;3.95;78.61;94209.60;1721994;83;21087;-55
2021/04/04 01:21:49;;;;;;;74.53;45.38;;;;;;;4.03;78.20;94209.63;1721873;83;21147;-56
2021/04/04 01:24:53;;;;;;;69.65;42.88;;;;;;;4.06;78.17;94214.23;1721558;83;21174;-54
2021/04/04 01:27:47;;;;;;;62.98;39.80;;;;;;;4.04;77.87;94211.16;1721920;83;21287;-56
2021/04/04 01:30:16;;;;;;;62.93;38.83;;;;;;;3.97;77.95;94210.53;1721612;82;21154;-61
2021/04/04 01:32:46;;;;;;;60.83;37.75;;;;;;;4.04;78.11;94210.41;1721587;82;21621;-56
2021/04/04 01:35:17;;;;;;;59.70;39.88;;;;;;;4.08;77.60;94215.94;1721707;83;21138;-55
2021/04/04 01:37:45;;;;;;;56.05;38.25;;;;;;;4.08;77.55;94215.94;1721755;83;21118;-56
2021/04/04 01:40:15;;;;;;;57.95;38.02;;;;;;;4.05;77.39;94211.34;1721756;82;21204;-55
2021/04/04 01:42:43;;;;;;;64.72;41.02;;;;;;;3.97;77.35;94214.03;1721619;82;21598;-55
2021/04/04 01:45:12;;;;;;;59.53;40.45;;;;;;;3.90;77.73;94216.87;1721761;83;21655;-56
2021/04/04 01:47:41;;;;;;;63.50;39.85;;;;;;;3.90;77.72;94206.59;1721411;82;21198;-55
2021/04/04 01:50:11;;;;;;;58.33;39.83;;;;;;;3.85;77.66;94211.16;1720923;83;21598;-56
2021/04/04 01:52:39;;;;;;;63.08;41.15;;;;;;;3.86;77.90;94208.62;1721130;83;21535;-56
2021/04/04 01:55:08;;;;;;;71.33;46.48;;;;;;;3.89;78.12;94212.61;1688272;83;21075;-56
2021/04/04 01:57:36;;;;;;;65.90;42.00;;;;;;;3.94;77.97;94212.15;1720959;83;21834;-54
2021/04/04 02:00:13;;;;;;;67.00;40.98;;;;;;;3.93;78.07;94213.34;1721050;83;21162;-55
2021/04/04 02:02:48;;;;;;;58.58;40.38;;;;;;;3.97;78.12;94211.89;1721075;83;21233;-55
2021/04/04 02:05:15;;;;;;;74.07;46.45;;;;;;;4.04;77.81;94213.88;1721084;83;21155;-57
2021/04/04 02:07:45;;;;;;;63.45;38.95;;;;;;;4.04;77.71;94216.61;1720798;83;21154;-57
2021/04/04 02:10:17;;;;;;;60.08;39.08;;;;;;;4.06;77.54;94219.67;1720960;83;21187;-56
2021/04/04 02:12:45;;;;;;;55.90;38.78;;;;;;;4.06;77.75;94219.67;1716674;83;21119;-57
2021/04/04 02:15:15;;;;;;;58.68;37.33;;;;;;;4.07;77.65;94229.38;1720966;83;21111;-57
2021/04/04 02:17:46;;;;;;;54.77;35.25;;;;;;;4.05;77.70;94224.94;1720992;83;21366;-55
2021/04/04 02:20:15;;;;;;;53.30;34.23;;;;;;;4.04;77.46;94227.48;1720770;83;21153;-56
2021/04/04 02:22:44;;;;;;;55.28;35.65;;;;;;;3.97;77.28;94235.80;1720837;83;21475;-56
2021/04/04 02:25:15;;;;;;;59.88;37.75;;;;;;;3.84;77.35;94233.50;1720873;83;21146;-56
2021/04/04 02:27:43;;;;;;;48.45;31.23;;;;;;;3.78;77.45;94232.46;1716505;83;21134;-56
2021/04/04 02:30:15;;;;;;;57.15;39.55;;;;;;;3.75;77.71;94238.73;1721099;83;22206;-56
2021/04/04 02:33:05;;;;;;;56.20;38.98;;;;;;;3.66;77.63;94236.38;1716420;83;21578;-57
2021/04/04 02:35:43;;;;;;;65.60;42.65;;;;;;;3.53;77.93;94236.19;1715958;83;21134;-55
2021/04/04 02:38:20;;;;;;;53.83;34.80;;;;;;;3.48;78.61;94244.65;1721028;83;21194;-56
2021/04/04 02:40:50;;;;;;;61.77;40.38;;;;;;;3.52;78.72;94240.09;1721096;83;21063;-56
2021/04/04 02:43:23;;;;;;;61.42;40.50;;;;;;;3.52;78.55;94237.38;1716361;83;21214;-56
2021/04/04 02:45:52;;;;;;;63.87;42.88;;;;;;;3.55;78.72;94243.33;1720775;83;21165;-56
2021/04/04 02:48:22;;;;;;;69.82;45.52;;;;;;;3.58;78.65;94250.69;1690338;83;21067;-56
2021/04/04 02:50:51;;;;;;;63.08;41.83;;;;;;;3.60;78.75;94251.05;1729308;83;21074;-55
2021/04/04 02:53:19;;;;;;;78.00;45.00;;;;;;;3.65;78.89;94251.92;1729318;83;21086;-56
2021/04/04 02:55:46;;;;;;;72.35;46.30;;;;;;;3.63;78.51;94252.14;1728996;83;21385;-56
2021/04/04 02:58:14;;;;;;;70.32;41.73;;;;;;;3.54;78.53;94254.04;1729170;83;21135;-57
2021/04/04 03:00:42;;;;;;;63.70;42.27;;;;;;;3.50;78.72;94257.41;1729306;83;21586;-55
2021/04/04 03:03:10;;;;;;;67.65;45.43;;;;;;;3.49;78.93;94261.31;1729216;83;21071;-56
2021/04/04 03:05:40;;;;;;;69.47;43.83;;;;;;;3.55;79.37;94254.82;1729279;83;21066;-56
2021/04/04 03:08:08;;;;;;;61.48;42.70;;;;;;;3.65;79.23;94253.88;1729233;83;21375;-55
2021/04/04 03:10:37;;;;;;;60.90;40.90;;;;;;;3.71;79.04;94254.33;1729067;83;21353;-55
2021/04/04 03:13:05;;;;;;;57.73;37.55;;;;;;;3.76;79.12;94256.59;1729387;83;21614;-55
2021/04/04 03:15:34;;;;;;;62.78;37.58;;;;;;;3.86;78.82;94248.81;1729331;83;21142;-55
2021/04/04 03:18:03;;;;;;;52.48;35.85;;;;;;;3.92;78.65;94244.45;1704767;83;21185;-56
2021/04/04 03:20:32;;;;;;;52.17;37.65;;;;;;;3.97;78.08;94252.13;1729283;82;21207;-55
2021/04/04 03:23:00;;;;;;;66.22;42.70;;;;;;;3.90;78.04;94249.52;1729031;83;21353;-56
2021/04/04 03:25:28;;;;;;;120.57;66.02;;;;;;;3.88;77.96;94252.49;1729203;83;21091;-56
2021/04/04 03:27:57;;;;;;;86.40;48.45;;;;;;;3.81;77.94;94250.66;1729183;83;21074;-56
2021/04/04 03:30:43;;;;;;;54.13;34.23;;;;;;;3.80;78.45;94263.31;1729273;83;21614;-56
2021/04/04 03:33:20;;;;;;;44.60;31.60;;;;;;;3.87;78.51;94273.48;1728412;83;21215;-55
2021/04/04 03:35:55;;;;;;;40.92;25.10;;;;;;;4.03;78.14;94267.38;1846870;76;22661;-56
2021/04/04 03:38:25;;;;;;;30.37;22.85;;;;;;;4.02;77.70;94270.69;1808464;78;21055;-55
2021/04/04 03:40:53;;;;;;;31.85;23.67;;;;;;;4.01;77.58;94274.59;1779627;79;21332;-55
2021/04/04 03:43:26;;;;;;;31.05;22.35;;;;;;;4.01;77.48;94274.59;1808400;79;21069;-56
2021/04/04 03:46:01;;;;;;;25.88;20.43;;;;;;;3.94;77.41;94270.65;1808369;79;21497;-55
2021/04/04 03:48:29;;;;;;;13.35;11.15;;;;;;;3.91;77.43;94267.98;1808467;79;21132;-56
2021/04/04 03:50:59;;;;;;;9.65;8.63;;;;;;;3.89;75.38;94278.52;1808448;78;21545;-55
2021/04/04 03:53:27;;;;;;;7.42;6.80;;;;;;;3.83;74.74;94279.58;1808291;78;21189;-56
2021/04/04 03:56:02;;;;;;;8.90;8.10;;;;;;;3.83;74.21;94285.63;1808345;79;21073;-55
2021/04/04 03:58:34;;;;;;;11.30;9.80;;;;;;;3.80;73.41;94281.77;1808377;79;21880;-56
2021/04/04 04:01:03;;;;;;;10.58;8.78;;;;;;;3.78;73.49;94286.86;1779912;79;21041;-56
2021/04/04 04:03:33;;;;;;;12.28;11.03;;;;;;;3.76;73.18;94287.88;1808499;78;21105;-56
2021/04/04 04:06:01;;;;;;;11.05;9.95;;;;;;;3.76;73.16;94299.33;1808507;79;21538;-56
2021/04/04 04:08:30;;;;;;;15.88;14.20;;;;;;;3.79;73.09;94306.08;1779148;79;21101;-56
2021/04/04 04:10:59;;;;;;;23.80;17.90;;;;;;;3.79;73.62;94307.44;1779601;79;21177;-56
2021/04/04 04:13:29;;;;;;;21.33;17.32;;;;;;;3.76;73.87;94308.85;1808342;79;21179;-61
2021/04/04 04:15:57;;;;;;;16.27;14.07;;;;;;;3.72;73.75;94308.91;1808506;79;21160;-56
2021/04/04 04:18:27;;;;;;;15.40;12.63;;;;;;;3.78;74.35;94311.34;1808212;79;21160;-56
2021/04/04 04:20:56;;;;;;;12.50;10.98;;;;;;;3.86;74.32;94318.19;1808304;79;21097;-56
2021/04/04 04:23:24;;;;;;;16.05;12.82;;;;;;;3.92;73.35;94309.75;1808305;78;21064;-56
2021/04/04 04:25:54;;;;;;;14.43;12.25;;;;;;;3.88;73.07;94323.98;1808320;78;21094;-55
2021/04/04 04:28:22;;;;;;;13.40;11.68;;;;;;;3.86;73.12;94322.27;1808450;79;21073;-56
2021/04/04 04:30:50;;;;;;;14.07;12.15;;;;;;;3.95;72.80;94325.82;1808440;79;21191;-56
2021/04/04 04:33:20;;;;;;;13.78;12.10;;;;;;;4.06;72.22;94338.05;1808020;78;21101;-55
2021/04/04 04:35:49;;;;;;;12.00;10.65;;;;;;;4.12;72.54;94339.72;1812322;77;21116;-56
2021/04/04 04:38:18;;;;;;;11.63;10.43;;;;;;;4.11;70.85;94339.54;1814042;79;21473;-55
2021/04/04 04:40:46;;;;;;;11.25;10.10;;;;;;;4.05;70.66;94339.84;1814099;79;21053;-56
2021/04/04 04:43:15;;;;;;;49.15;38.28;;;;;;;3.97;70.20;94337.05;1814005;79;21355;-56
2021/04/04 04:45:43;;;;;;;16.10;12.95;;;;;;;3.87;70.55;94334.69;1813714;79;21057;-56
2021/04/04 04:48:11;;;;;;;21.57;13.53;;;;;;;3.83;71.03;94342.75;1786468;79;21548;-57
2021/04/04 04:50:42;;;;;;;19.80;15.60;;;;;;;3.86;71.50;94343.28;1813331;78;21112;-56
2021/04/04 04:53:10;;;;;;;15.65;12.95;;;;;;;3.86;71.58;94344.64;1813569;79;21121;-56
2021/04/04 04:55:38;;;;;;;16.45;12.50;;;;;;;3.86;70.96;94362.33;1786698;79;21202;-56
2021/04/04 04:58:06;;;;;;;17.00;13.03;;;;;;;3.81;70.63;94363.56;1813435;79;21089;-55
2021/04/04 05:00:34;;;;;;;13.53;12.13;;;;;;;3.83;70.16;94358.47;1813581;78;21474;-55
2021/04/04 05:03:04;;;;;;;17.92;12.88;;;;;;;3.87;69.43;94359.78;1813389;79;21164;-56
2021/04/04 05:05:32;;;;;;;22.17;11.83;;;;;;;3.85;68.05;94356.71;1813443;79;21069;-57
2021/04/04 05:08:01;;;;;;;22.05;14.60;;;;;;;3.77;67.76;94363.43;1813534;79;21200;-56
2021/04/04 05:10:29;;;;;;;15.03;11.78;;;;;;;3.76;68.19;94365.39;1813277;79;21114;-57
2021/04/04 05:13:00;;;;;;;19.02;11.53;;;;;;;3.83;68.32;94362.55;1813266;79;21148;-57
2021/04/04 05:15:27;;;;;;;12.45;10.93;;;;;;;3.85;68.01;94364.27;1813229;78;21206;-56
2021/04/04 05:17:55;;;;;;;34.92;20.00;;;;;;;3.86;67.49;94362.33;1786611;79;21057;-56
2021/04/04 05:20:23;;;;;;;18.10;14.83;;;;;;;3.88;68.34;94368.13;1813373;78;21200;-56
2021/04/04 05:22:51;;;;;;;16.87;12.15;;;;;;;3.86;68.74;94369.88;1813276;79;21100;-56
2021/04/04 05:25:19;;;;;;;18.20;13.08;;;;;;;3.84;69.09;94368.17;1813348;79;21101;-55
2021/04/04 05:27:47;;;;;;;21.87;16.05;;;;;;;3.89;69.22;94371.77;1813311;79;21168;-56
2021/04/04 05:30:18;;;;;;;18.40;13.18;;;;;;;4.00;69.14;94374.31;1813446;79;21065;-55
2021/04/04 05:32:50;;;;;;;14.23;12.53;;;;;;;4.08;69.06;94382.56;1813301;79;21200;-57
2021/04/04 05:35:21;;;;;;;15.60;12.98;;;;;;;4.11;69.25;94381.15;1782610;79;21549;-56
2021/04/04 05:37:54;;;;;;;19.57;17.37;;;;;;;4.21;69.06;94374.73;1797297;79;21117;-57
2021/04/04 05:40:26;;;;;;;23.27;20.85;;;;;;;4.29;69.21;94378.11;1797002;79;21065;-57
2021/04/04 05:43:04;;;;;;;18.00;16.15;;;;;;;4.36;69.31;94382.84;1797296;79;21034;-57
2021/04/04 05:45:53;;;;;;;39.48;30.48;;;;;;;4.43;69.37;94390.87;1797169;78;21354;-56
2021/04/04 05:48:42;;;;;;;38.63;27.40;;;;;;;4.49;68.54;94390.59;1797245;78;21112;-56
2021/04/04 05:51:27;;;;;;;34.00;23.83;;;;;;;4.49;67.43;94390.59;1797214;79;21100;-56
2021/04/04 05:54:33;;;;;;;30.62;21.87;;;;;;;4.50;67.55;94390.76;1797109;78;21073;-57
2021/04/04 05:57:15;;;;;;;19.45;15.58;;;;;;;4.52;67.81;94389.75;1796926;78;21171;-57
2021/04/04 05:59:49;;;;;;;25.23;16.27;;;;;;;4.50;68.86;94392.13;1780809;79;21212;-58
2021/04/04 06:02:51;;;;;;;24.75;17.57;;;;;;;4.45;69.26;94391.22;1797337;79;21068;-56
2021/04/04 06:06:04;;;;;;;22.60;16.25;;;;;;;4.47;69.49;94390.81;1792430;78;21140;-58
2021/04/04 06:08:53;;;;;;;25.20;16.23;;;;;;;4.52;69.68;94400.64;1796665;79;21588;-56
2021/04/04 06:11:51;;;;;;;21.27;16.20;;;;;;;4.58;69.22;94400.33;1797300;78;21073;-56
2021/04/04 06:15:02;;;;;;;22.10;14.70;;;;;;;4.78;68.93;94401.72;1795567;79;21196;-56
2021/04/04 06:18:15;;;;;;;22.58;13.48;;;;;;;5.04;68.16;94404.90;1797215;79;21152;-56
2021/04/04 06:21:24;;;;;;;16.75;12.28;;;;;;;5.29;66.67;94400.48;1797463;79;21057;-57
2021/04/04 06:23:59;;;;;;;19.48;13.10;;;;;;;5.50;65.00;94406.84;1797076;78;21116;-57
2021/04/04 06:27:08;;;;;;;18.27;13.50;;;;;;;5.63;64.07;94400.91;1797103;79;21584;-56
2021/04/04 06:29:55;;;;;;;14.38;11.45;;;;;;;5.70;63.71;94407.56;1797155;79;21189;-58
2021/04/04 06:32:44;;;;;;;16.45;12.40;;;;;;;5.72;62.12;94408.69;1797063;78;21073;-57
2021/04/04 06:35:39;;;;;;;15.05;11.75;;;;;;;5.68;62.16;94405.86;1782907;79;21541;-57
2021/04/04 06:39:02;;;;;;;15.05;11.97;;;;;;;5.68;62.08;94404.49;1807731;78;21204;-57
2021/04/04 06:41:54;;;;;;;13.10;11.70;;;;;;;5.73;62.86;94408.08;1807852;78;21101;-57
2021/04/04 06:45:12;;;;;;;12.58;10.75;;;;;;;5.76;62.13;94412.70;1807653;79;21362;-56
2021/04/04 06:48:13;;;;;;;13.48;11.05;;;;;;;5.77;61.50;94406.05;1807648;78;21113;-57
2021/04/04 06:50:46;;;;;;;10.98;9.80;;;;;;;5.83;61.61;94413.32;1807906;78;21058;-57
2021/04/04 06:53:43;;;;;;;10.45;9.45;;;;;;;5.93;60.84;94407.48;1779286;79;21066;-57
2021/04/04 06:56:47;;;;;;;11.43;10.15;;;;;;;6.05;60.30;94410.88;1805870;79;21100;-56
2021/04/04 06:59:20;;;;;;;11.97;8.53;;;;;;;6.15;60.18;94413.97;1807549;79;21191;-57
2021/04/04 07:02:07;;;;;;;9.40;8.40;;;;;;;6.28;59.34;94418.89;1756432;81;21856;-57
2021/04/04 07:04:42;;;;;;;10.95;9.10;;;;;;;6.41;58.96;94417.02;1750291;82;21512;-56
2021/04/04 07:07:35;;;;;;;11.08;7.78;;;;;;;6.51;58.84;94420.84;1750038;82;21153;-56
2021/04/04 07:10:14;;;;;;;9.95;8.60;;;;;;;6.61;58.55;94425.29;1749562;80;21086;-57
2021/04/04 07:13:31;;;;;;;8.80;7.90;;;;;;;6.74;59.07;94422.00;1750345;82;21414;-58
2021/04/04 07:16:25;;;;;;;9.05;6.95;;;;;;;6.84;58.72;94421.55;1750478;80;21130;-57
2021/04/04 07:19:29;;;;;;;7.53;6.80;;;;;;;6.89;58.19;94422.42;1750446;82;21471;-56
2021/04/04 07:22:14;;;;;;;10.72;7.42;;;;;;;6.88;58.09;94427.72;1749920;80;21177;-57
2021/04/04 07:25:23;;;;;;;8.80;7.65;;;;;;;6.87;57.42;94427.55;1744403;82;21189;-57
2021/04/04 07:28:20;;;;;;;6.25;5.75;;;;;;;6.92;57.62;94435.97;1750545;82;21201;-57
2021/04/04 07:30:55;;;;;;;9.20;6.65;;;;;;;6.87;56.27;94435.75;1750360;82;21614;-59
2021/04/04 07:33:50;;;;;;;7.58;6.75;;;;;;;6.74;56.09;94440.39;1750304;80;21071;-58
2021/04/04 07:36:53;;;;;;;5.90;5.40;;;;;;;6.55;55.62;94445.36;1755582;80;21133;-57
2021/04/04 07:39:44;;;;;;;6.25;5.65;;;;;;;6.37;55.85;94449.88;1759496;81;21161;-57
2021/04/04 07:42:29;;;;;;;6.58;5.60;;;;;;;6.20;55.20;94447.00;1759727;81;21430;-58
2021/04/04 07:45:14;;;;;;;7.58;5.95;;;;;;;6.09;55.64;94451.14;1759163;81;21209;-62
2021/04/04 07:48:24;;;;;;;6.33;5.72;;;;;;;6.08;55.82;94449.61;1759595;81;22143;-57
2021/04/04 07:51:15;;;;;;;8.38;6.55;;;;;;;5.96;56.03;94457.12;1759424;80;21471;-61
2021/04/04 07:54:12;;;;;;;8.03;6.37;;;;;;;5.86;56.56;94466.30;1759474;80;21065;-57
2021/04/04 07:56:55;;;;;;;9.40;7.15;;;;;;;5.76;57.21;94461.22;1759750;81;21373;-60
2021/04/04 07:59:41;;;;;;;5.95;5.25;;;;;;;5.74;56.76;94460.09;1759489;81;21066;-58
2021/04/04 08:02:18;;;;;;;8.88;6.10;;;;;;;5.79;56.52;94467.84;1759462;80;21126;-57
2021/04/04 08:04:59;;;;;;;8.08;6.37;;;;;;;5.80;57.06;94465.28;1734214;81;21511;-58
2021/04/04 08:07:44;;;;;;;7.12;6.40;;;;;;;5.80;56.93;94463.91;1759600;81;21600;-57
2021/04/04 08:10:30;;;;;;;7.33;6.42;;;;;;;5.76;57.45;94468.66;1759359;81;21390;-58
2021/04/04 08:13:12;;;;;;;7.95;6.00;;;;;;;5.71;57.27;94463.67;1759316;81;21134;-56
2021/04/04 08:16:13;;;;;;;7.40;6.15;;;;;;;5.71;58.05;94469.13;1759549;80;21611;-57
2021/04/04 08:18:42;;;;;;;8.10;6.58;;;;;;;5.70;57.35;94467.59;1722991;81;21118;-56
2021/04/04 08:21:16;;;;;;;9.40;7.22;;;;;;;5.76;57.56;94464.56;1759830;80;21114;-56
2021/04/04 08:23:56;;;;;;;7.70;6.42;;;;;;;5.84;57.53;94471.42;1759115;80;21506;-58
2021/04/04 08:26:28;;;;;;;9.65;7.75;;;;;;;5.89;55.70;94464.09;1759493;81;21082;-58
2021/04/04 08:29:05;;;;;;;10.70;7.37;;;;;;;5.93;56.19;94467.53;1759754;81;21083;-58
2021/04/04 08:31:38;;;;;;;6.60;5.90;;;;;;;6.01;56.81;94467.53;1759710;81;21471;-56
2021/04/04 08:34:14;;;;;;;22.10;8.38;;;;;;;6.09;55.53;94464.80;1759660;81;21082;-58
2021/04/04 08:37:10;;;;;;;8.23;7.00;;;;;;;6.16;54.93;94464.66;1759321;81;21144;-57
2021/04/04 08:39:38;;;;;;;9.83;7.22;;;;;;;6.31;55.17;94464.50;1759659;80;21164;-55
2021/04/04 08:42:08;;;;;;;7.78;6.22;;;;;;;6.53;55.52;94459.44;1759754;81;21612;-57
2021/04/04 08:44:53;;;;;;;12.60;9.75;;;;;;;6.66;54.97;94461.66;1759450;81;21071;-56
2021/04/04 08:47:31;;;;;;;10.23;7.40;;;;;;;6.73;53.55;94459.35;1759693;81;21145;-59
2021/04/04 08:50:03;;;;;;;9.53;6.90;;;;;;;6.87;55.81;94452.16;1759411;80;21406;-57
2021/04/04 08:52:36;;;;;;;6.40;5.50;;;;;;;7.12;54.98;94455.16;1759545;80;21119;-57
2021/04/04 08:55:07;;;;;;;8.33;5.58;;;;;;;7.31;53.52;94447.41;1759706;80;21491;-58
2021/04/04 08:57:42;;;;;;;6.10;4.85;;;;;;;7.29;53.05;94449.81;1759578;81;21518;-58
2021/04/04 09:00:13;;;;;;;5.50;4.75;;;;;;;7.19;52.25;94456.33;1759457;80;21137;-58
2021/04/04 09:03:09;;;;;;;4.83;4.28;;;;;;;7.01;51.85;94455.87;1759567;81;21558;-57
2021/04/04 09:05:37;;;;;;;8.03;4.80;;;;;;;6.89;51.72;94447.78;1759438;81;21153;-57
2021/04/04 09:08:06;;;;;;;10.20;5.70;;;;;;;6.85;51.85;94450.45;1759552;81;21097;-57
2021/04/04 09:10:38;;;;;;;12.40;6.12;;;;;;;6.79;51.65;94444.73;1759300;80;21495;-57
2021/04/04 09:13:11;;;;;;;12.28;5.55;;;;;;;6.79;51.67;94445.32;1759487;80;21224;-57
2021/04/04 09:15:50;;;;;;;9.55;4.83;;;;;;;6.79;52.37;94441.22;1759581;80;21133;-56
2021/04/04 09:18:21;;;;;;;10.43;5.72;;;;;;;6.89;51.95;94447.02;1759507;81;21125;-56
2021/04/04 09:20:50;;;;;;;5.70;5.20;;;;;;;6.96;51.59;94441.36;1759698;80;21582;-56
2021/04/04 09:23:21;;;;;;;7.03;4.30;;;;;;;6.90;51.22;94444.45;1759328;81;21153;-57
2021/04/04 09:26:00;;;;;;;4.12;3.80;;;;;;;6.86;50.53;94448.64;1759436;81;21129;-57
2021/04/04 09:28:30;;;;;;;19.37;5.40;;;;;;;6.89;49.42;94436.84;1759614;80;21266;-57
2021/04/04 09:31:01;;;;;;;8.18;6.15;;;;;;;6.92;50.16;94441.44;1759240;80;21118;-57
2021/04/04 09:33:34;;;;;;;9.20;6.80;;;;;;;7.01;49.76;94435.36;1759559;81;21132;-56
2021/04/04 09:36:04;;;;;;;30.10;8.30;;;;;;;7.08;50.60;94426.98;1759008;80;21581;-57
2021/04/04 09:38:40;;;;;;;12.63;7.22;;;;;;;7.14;51.17;94437.72;1759591;80;21074;-57
2021/04/04 09:41:10;;;;;;;8.50;6.70;;;;;;;7.43;51.73;94442.58;1759409;80;21898;-58
2021/04/04 09:44:01;;;;;;;6.60;5.97;;;;;;;7.85;52.63;94441.95;1734532;81;21173;-58
2021/04/04 09:46:29;;;;;;;6.53;5.92;;;;;;;8.16;51.09;94438.83;1736444;81;21518;-58
2021/04/04 09:48:59;;;;;;;10.38;6.53;;;;;;;8.36;49.00;94437.43;1759471;80;21219;-57
2021/04/04 09:51:27;;;;;;;9.70;6.83;;;;;;;8.41;48.59;94434.12;1759554;80;21071;-57
2021/04/04 09:53:58;;;;;;;13.80;8.93;;;;;;;8.40;48.81;94442.81;1759551;81;21387;-57
2021/04/04 09:56:32;;;;;;;9.43;7.58;;;;;;;8.41;49.07;94439.61;1759456;80;21110;-58
2021/04/04 09:59:02;;;;;;;8.93;7.08;;;;;;;8.30;48.76;94443.31;1759619;81;21587;-57
2021/04/04 10:01:32;;;;;;;13.30;9.48;;;;;;;8.01;47.47;94433.02;1759567;80;21157;-56
2021/04/04 10:04:04;;;;;;;9.00;7.62;;;;;;;7.68;47.65;94442.63;1759535;80;21526;-58
2021/04/04 10:06:34;;;;;;;7.95;6.67;;;;;;;7.29;48.82;94437.50;1759411;80;21209;-57
2021/04/04 10:09:12;;;;;;;6.45;5.20;;;;;;;7.04;49.28;94438.01;1734011;81;21079;-58
2021/04/04 10:11:42;;;;;;;11.18;5.92;;;;;;;6.88;50.23;94437.29;1759386;81;21573;-58
2021/04/04 10:14:14;;;;;;;5.35;4.85;;;;;;;6.79;50.49;94435.75;1759683;80;21089;-57
2021/04/04 10:16:44;;;;;;;9.60;5.05;;;;;;;6.72;50.51;94435.33;1759819;81;21059;-57
2021/04/04 10:19:16;;;;;;;8.50;7.03;;;;;;;6.76;49.43;94435.25;1759707;80;21389;-58
2021/04/04 10:22:00;;;;;;;8.23;6.50;;;;;;;6.80;48.82;94436.70;1734250;80;21501;-64
2021/04/04 10:24:35;;;;;;;6.25;4.95;;;;;;;6.81;48.76;94437.45;1759420;81;21145;-58
2021/04/04 10:27:28;;;;;;;7.35;5.95;;;;;;;6.88;47.93;94430.45;1759234;81;21098;-57
2021/04/04 10:30:13;;;;;;;18.75;7.95;;;;;;;6.85;48.33;94430.70;1759429;81;21494;-59
2021/04/04 10:32:46;;;;;;;9.63;5.62;;;;;;;6.83;48.92;94429.00;1759498;80;21209;-60
2021/04/04 10:35:37;;;;;;;10.43;7.12;;;;;;;6.86;48.91;94432.86;1759273;80;21115;-59
2021/04/04 10:38:08;;;;;;;7.47;4.92;;;;;;;6.96;49.83;94435.89;1759417;80;21095;-58
2021/04/04 10:40:54;;;;;;;9.13;5.42;;;;;;;6.99;49.30;94432.29;1759509;80;21201;-62
2021/04/04 10:43:47;;;;;;;14.45;9.55;;;;;;;6.99;49.06;94443.23;1736346;81;21065;-57
2021/04/04 10:46:17;;;;;;;8.23;6.30;;;;;;;6.92;48.18;94438.70;1759533;81;21474;-56
2021/04/04 10:48:48;;;;;;;5.60;5.00;;;;;;;6.76;47.69;94430.56;1759157;80;21066;-57
2021/04/04 10:51:18;;;;;;;9.53;8.38;;;;;;;6.67;47.83;94436.48;1734287;81;21098;-56
2021/04/04 10:53:48;;;;;;;11.97;6.83;;;;;;;6.63;48.10;94439.88;1759372;80;21078;-57
2021/04/04 10:56:17;;;;;;;12.65;10.05;;;;;;;6.59;48.21;94450.13;1734235;81;21502;-58
2021/04/04 10:58:46;;;;;;;8.65;6.72;;;;;;;6.53;47.74;94438.19;1759552;81;21514;-58
2021/04/04 11:01:14;;;;;;;12.73;7.15;;;;;;;6.48;48.11;94438.72;1759318;80;21093;-57
2021/04/04 11:03:44;;;;;;;10.38;6.40;;;;;;;6.42;48.53;94441.19;1759476;80;21499;-57
2021/04/04 11:06:13;;;;;;;6.90;5.83;;;;;;;6.41;48.50;94441.61;1759405;80;21073;-57
2021/04/04 11:08:43;;;;;;;10.20;6.45;;;;;;;6.38;48.98;94434.27;1759569;81;21078;-59
2021/04/04 11:11:25;;;;;;;7.10;5.42;;;;;;;6.35;48.83;94436.50;1759286;81;21077;-57
2021/04/04 11:13:53;;;;;;;7.12;5.92;;;;;;;6.39;47.52;94437.17;1759163;80;21319;-57
2021/04/04 11:16:25;;;;;;;12.55;4.80;;;;;;;6.40;48.19;94431.88;1759403;80;21502;-57
2021/04/04 11:18:57;;;;;;;8.43;6.53;;;;;;;6.46;47.53;94430.16;1759606;81;21074;-57
2021/04/04 11:21:34;;;;;;;5.50;5.00;;;;;;;6.53;48.40;94432.73;1759383;81;21094;-57
2021/04/04 11:24:03;;;;;;;10.50;6.00;;;;;;;6.63;46.50;94426.99;1759282;80;21372;-60
2021/04/04 11:26:35;;;;;;;11.18;7.42;;;;;;;6.71;47.21;94425.60;1759370;81;21189;-57
2021/04/04 11:29:17;;;;;;;10.23;5.37;;;;;;;6.80;46.61;94420.88;1759551;80;21494;-59
2021/04/04 11:32:16;;;;;;;10.13;9.10;;;;;;;6.97;47.09;94430.59;1870753;75;27858;-58
2021/04/04 11:35:03;;;;;;;6.50;5.90;;;;;;;7.13;46.62;94421.14;1839063;77;21810;-58
2021/04/04 11:37:36;;;;;;;5.53;5.00;;;;;;;7.19;45.65;94413.92;1818602;78;21423;-58
2021/04/04 11:40:19;;;;;;;6.67;5.53;;;;;;;7.24;46.17;94420.84;1801854;78;21063;-57
2021/04/04 11:42:52;;;;;;;9.03;5.95;;;;;;;7.35;45.54;94414.48;1797181;78;21136;-58
2021/04/04 11:45:35;;;;;;;13.00;9.18;;;;;;;7.45;44.54;94417.50;1810342;79;21894;-59
2021/04/04 11:48:29;;;;;;;11.60;8.75;;;;;;;7.47;45.57;94419.20;1813093;78;24821;-58
2021/04/04 11:51:18;;;;;;;17.37;8.65;;;;;;;7.51;45.14;94420.63;1815973;78;21600;-60
2021/04/04 11:53:47;;;;;;;11.80;7.70;;;;;;;7.60;44.42;94418.04;1799025;79;21151;-59
2021/04/04 11:56:45;;;;;;;14.83;8.43;;;;;;;7.68;45.00;94413.87;1803286;78;21148;-58
2021/04/04 11:59:15;;;;;;;9.83;6.95;;;;;;;7.74;44.64;94416.84;1814749;79;21125;-57
2021/04/04 12:01:45;;;;;;;12.15;8.28;;;;;;;7.78;45.46;94413.39;1813891;79;21907;-58
2021/04/04 12:04:30;;;;;;;10.03;7.05;;;;;;;7.81;45.22;94414.67;1814368;78;21443;-59
2021/04/04 12:07:10;;;;;;;14.73;10.80;;;;;;;7.79;45.52;94408.86;1814343;79;21207;-59
2021/04/04 12:09:43;;;;;;;27.77;10.78;;;;;;;7.77;45.49;94414.02;1805150;78;21170;-56
2021/04/04 12:12:13;;;;;;;9.40;6.87;;;;;;;7.79;45.35;94417.08;1793487;80;21205;-57
2021/04/04 12:14:52;;;;;;;12.35;7.35;;;;;;;7.76;44.88;94415.22;1793484;80;21441;-58